sensor_id;sensor_type;location;lat;lon;timestamp;P1;durP1;ratioP1;P2;durP2;ratioP2
50379;SDS011;37474;59.468;18.040;2023-09-19T00:01:03;12.60;;;4.97;;
50379;SDS011;37474;59.468;18.040;2023-09-19T00:03:35;9.40;;;4.75;;
50379;SDS011;37474;59.468;18.040;2023-09-19T00:06:05;11.70;;;4.88;;
50379;SDS011;37474;59.468;18.040;2023-09-19T00:08:34;14.02;;;5.60;;
50379;SDS011;37474;59.468;18.040;2023-09-19T00:11:02;9.25;;;4.45;;
50379;SDS011;37474;59.468;18.040;2023-09-19T00:13:30;13.18;;;5.28;;
50379;SDS011;37474;59.468;18.040;2023-09-19T00:15:58;10.95;;;5.47;;
50379;SDS011;37474;59.468;18.040;2023-09-19T00:18:26;12.95;;;5.70;;
50379;SDS011;37474;59.468;18.040;2023-09-19T00:21:00;8.52;;;5.30;;
50379;SDS011;37474;59.468;18.040;2023-09-19T00:23:30;11.98;;;5.60;;
50379;SDS011;37474;59.468;18.040;2023-09-19T00:25:59;17.98;;;5.60;;
50379;SDS011;37474;59.468;18.040;2023-09-19T00:28:27;13.07;;;5.70;;
50379;SDS011;37474;59.468;18.040;2023-09-19T00:30:56;14.20;;;5.95;;
50379;SDS011;37474;59.468;18.040;2023-09-19T00:33:28;16.42;;;6.35;;
50379;SDS011;37474;59.468;18.040;2023-09-19T00:35:57;13.38;;;5.60;;
50379;SDS011;37474;59.468;18.040;2023-09-19T00:38:27;15.00;;;6.25;;
50379;SDS011;37474;59.468;18.040;2023-09-19T00:40:55;15.67;;;6.70;;
50379;SDS011;37474;59.468;18.040;2023-09-19T00:43:26;11.98;;;6.50;;
50379;SDS011;37474;59.468;18.040;2023-09-19T00:45:56;12.95;;;6.30;;
50379;SDS011;37474;59.468;18.040;2023-09-19T00:48:27;15.77;;;6.78;;
50379;SDS011;37474;59.468;18.040;2023-09-19T00:50:56;13.77;;;7.30;;
50379;SDS011;37474;59.468;18.040;2023-09-19T00:53:28;16.40;;;7.40;;
50379;SDS011;37474;59.468;18.040;2023-09-19T00:56:00;17.48;;;7.43;;
50379;SDS011;37474;59.468;18.040;2023-09-19T00:58:32;15.70;;;7.43;;
50379;SDS011;37474;59.468;18.040;2023-09-19T01:01:01;18.77;;;7.28;;
50379;SDS011;37474;59.468;18.040;2023-09-19T01:03:33;13.63;;;7.47;;
50379;SDS011;37474;59.468;18.040;2023-09-19T01:06:02;16.20;;;8.52;;
50379;SDS011;37474;59.468;18.040;2023-09-19T01:08:31;13.85;;;8.38;;
50379;SDS011;37474;59.468;18.040;2023-09-19T01:11:06;16.05;;;7.95;;
50379;SDS011;37474;59.468;18.040;2023-09-19T01:13:43;11.98;;;7.78;;
50379;SDS011;37474;59.468;18.040;2023-09-19T01:16:19;11.63;;;7.28;;
50379;SDS011;37474;59.468;18.040;2023-09-19T01:18:58;18.60;;;8.13;;
50379;SDS011;37474;59.468;18.040;2023-09-19T01:21:36;16.13;;;8.18;;
50379;SDS011;37474;59.468;18.040;2023-09-19T01:27:22;19.33;;;8.40;;
50379;SDS011;37474;59.468;18.040;2023-09-19T01:30:08;15.48;;;8.13;;
50379;SDS011;37474;59.468;18.040;2023-09-19T01:32:37;14.32;;;8.43;;
50379;SDS011;37474;59.468;18.040;2023-09-19T01:35:07;14.77;;;8.30;;
50379;SDS011;37474;59.468;18.040;2023-09-19T01:37:39;18.13;;;8.40;;
50379;SDS011;37474;59.468;18.040;2023-09-19T01:40:12;15.20;;;7.85;;
50379;SDS011;37474;59.468;18.040;2023-09-19T01:42:44;14.82;;;8.07;;
50379;SDS011;37474;59.468;18.040;2023-09-19T01:45:21;15.43;;;8.85;;
50379;SDS011;37474;59.468;18.040;2023-09-19T01:47:54;13.63;;;8.18;;
50379;SDS011;37474;59.468;18.040;2023-09-19T01:50:27;18.08;;;8.68;;
50379;SDS011;37474;59.468;18.040;2023-09-19T01:53:01;17.55;;;7.80;;
50379;SDS011;37474;59.468;18.040;2023-09-19T01:55:36;13.60;;;8.02;;
50379;SDS011;37474;59.468;18.040;2023-09-19T01:58:16;20.58;;;9.50;;
50379;SDS011;37474;59.468;18.040;2023-09-19T02:00:50;18.83;;;8.45;;
50379;SDS011;37474;59.468;18.040;2023-09-19T02:03:19;16.25;;;8.75;;
50379;SDS011;37474;59.468;18.040;2023-09-19T02:08:18;17.98;;;9.13;;
50379;SDS011;37474;59.468;18.040;2023-09-19T02:10:47;15.00;;;9.07;;
50379;SDS011;37474;59.468;18.040;2023-09-19T02:13:15;13.90;;;9.02;;
50379;SDS011;37474;59.468;18.040;2023-09-19T02:15:45;20.08;;;9.50;;
50379;SDS011;37474;59.468;18.040;2023-09-19T02:18:15;18.42;;;9.10;;
50379;SDS011;37474;59.468;18.040;2023-09-19T02:20:47;16.70;;;10.40;;
50379;SDS011;37474;59.468;18.040;2023-09-19T02:23:15;17.10;;;9.30;;
50379;SDS011;37474;59.468;18.040;2023-09-19T02:25:51;19.00;;;9.43;;
50379;SDS011;37474;59.468;18.040;2023-09-19T02:28:20;18.73;;;9.20;;
50379;SDS011;37474;59.468;18.040;2023-09-19T02:30:48;18.10;;;9.55;;
50379;SDS011;37474;59.468;18.040;2023-09-19T02:33:18;17.55;;;10.25;;
50379;SDS011;37474;59.468;18.040;2023-09-19T02:35:46;22.57;;;10.50;;
50379;SDS011;37474;59.468;18.040;2023-09-19T02:38:14;15.10;;;10.00;;
50379;SDS011;37474;59.468;18.040;2023-09-19T02:40:44;19.08;;;10.43;;
50379;SDS011;37474;59.468;18.040;2023-09-19T02:45:44;17.60;;;9.98;;
50379;SDS011;37474;59.468;18.040;2023-09-19T02:48:12;19.13;;;11.10;;
50379;SDS011;37474;59.468;18.040;2023-09-19T02:50:43;19.25;;;11.20;;
50379;SDS011;37474;59.468;18.040;2023-09-19T02:53:12;21.35;;;11.57;;
50379;SDS011;37474;59.468;18.040;2023-09-19T02:55:40;19.05;;;11.43;;
50379;SDS011;37474;59.468;18.040;2023-09-19T02:58:09;17.15;;;10.82;;
50379;SDS011;37474;59.468;18.040;2023-09-19T03:00:38;20.00;;;11.57;;
50379;SDS011;37474;59.468;18.040;2023-09-19T03:03:08;23.67;;;12.55;;
50379;SDS011;37474;59.468;18.040;2023-09-19T03:05:36;20.27;;;11.07;;
50379;SDS011;37474;59.468;18.040;2023-09-19T03:08:06;20.25;;;11.82;;
50379;SDS011;37474;59.468;18.040;2023-09-19T03:10:34;18.10;;;11.70;;
50379;SDS011;37474;59.468;18.040;2023-09-19T03:13:04;20.83;;;12.25;;
50379;SDS011;37474;59.468;18.040;2023-09-19T03:15:32;22.42;;;13.07;;
50379;SDS011;37474;59.468;18.040;2023-09-19T03:18:00;21.48;;;13.30;;
50379;SDS011;37474;59.468;18.040;2023-09-19T03:20:28;16.77;;;12.00;;
50379;SDS011;37474;59.468;18.040;2023-09-19T03:22:57;17.90;;;12.38;;
50379;SDS011;37474;59.468;18.040;2023-09-19T03:25:27;20.40;;;12.98;;
50379;SDS011;37474;59.468;18.040;2023-09-19T03:27:56;17.20;;;12.68;;
50379;SDS011;37474;59.468;18.040;2023-09-19T03:30:25;23.10;;;13.30;;
50379;SDS011;37474;59.468;18.040;2023-09-19T03:32:53;22.90;;;13.57;;
50379;SDS011;37474;59.468;18.040;2023-09-19T03:35:23;22.35;;;13.95;;
50379;SDS011;37474;59.468;18.040;2023-09-19T03:37:51;22.00;;;13.57;;
50379;SDS011;37474;59.468;18.040;2023-09-19T03:40:20;21.10;;;13.80;;
50379;SDS011;37474;59.468;18.040;2023-09-19T03:42:50;23.37;;;13.87;;
50379;SDS011;37474;59.468;18.040;2023-09-19T03:45:18;22.07;;;14.33;;
50379;SDS011;37474;59.468;18.040;2023-09-19T03:47:46;24.73;;;13.82;;
50379;SDS011;37474;59.468;18.040;2023-09-19T03:50:14;29.02;;;14.23;;
50379;SDS011;37474;59.468;18.040;2023-09-19T03:52:44;24.83;;;15.50;;
50379;SDS011;37474;59.468;18.040;2023-09-19T03:55:14;27.17;;;14.70;;
50379;SDS011;37474;59.468;18.040;2023-09-19T03:57:42;24.33;;;15.05;;
50379;SDS011;37474;59.468;18.040;2023-09-19T04:00:20;27.50;;;16.08;;
50379;SDS011;37474;59.468;18.040;2023-09-19T04:02:51;26.25;;;16.65;;
50379;SDS011;37474;59.468;18.040;2023-09-19T04:05:20;22.52;;;15.15;;
50379;SDS011;37474;59.468;18.040;2023-09-19T04:07:48;27.65;;;16.05;;
50379;SDS011;37474;59.468;18.040;2023-09-19T04:10:16;23.42;;;15.90;;
50379;SDS011;37474;59.468;18.040;2023-09-19T04:12:51;23.15;;;15.35;;
50379;SDS011;37474;59.468;18.040;2023-09-19T04:15:21;20.45;;;15.75;;
50379;SDS011;37474;59.468;18.040;2023-09-19T04:17:50;25.48;;;15.77;;
50379;SDS011;37474;59.468;18.040;2023-09-19T04:20:18;26.63;;;16.60;;
50379;SDS011;37474;59.468;18.040;2023-09-19T04:25:17;28.13;;;17.38;;
50379;SDS011;37474;59.468;18.040;2023-09-19T04:27:45;24.45;;;16.48;;
50379;SDS011;37474;59.468;18.040;2023-09-19T04:30:14;24.73;;;16.52;;
50379;SDS011;37474;59.468;18.040;2023-09-19T04:32:43;24.50;;;15.75;;
50379;SDS011;37474;59.468;18.040;2023-09-19T04:35:17;23.25;;;15.27;;
50379;SDS011;37474;59.468;18.040;2023-09-19T04:37:45;24.38;;;15.70;;
50379;SDS011;37474;59.468;18.040;2023-09-19T04:40:14;24.02;;;15.52;;
50379;SDS011;37474;59.468;18.040;2023-09-19T04:42:44;26.70;;;16.63;;
50379;SDS011;37474;59.468;18.040;2023-09-19T04:45:13;27.08;;;17.38;;
50379;SDS011;37474;59.468;18.040;2023-09-19T04:47:41;25.83;;;16.20;;
50379;SDS011;37474;59.468;18.040;2023-09-19T04:50:11;24.60;;;16.55;;
50379;SDS011;37474;59.468;18.040;2023-09-19T04:52:40;24.92;;;17.00;;
50379;SDS011;37474;59.468;18.040;2023-09-19T04:55:11;27.13;;;16.58;;
50379;SDS011;37474;59.468;18.040;2023-09-19T04:57:43;25.65;;;16.63;;
50379;SDS011;37474;59.468;18.040;2023-09-19T05:00:12;25.40;;;17.23;;
50379;SDS011;37474;59.468;18.040;2023-09-19T05:02:44;24.17;;;16.70;;
50379;SDS011;37474;59.468;18.040;2023-09-19T05:05:14;24.98;;;17.75;;
50379;SDS011;37474;59.468;18.040;2023-09-19T05:07:43;32.10;;;17.92;;
50379;SDS011;37474;59.468;18.040;2023-09-19T05:10:12;25.40;;;16.90;;
50379;SDS011;37474;59.468;18.040;2023-09-19T05:12:40;25.38;;;16.85;;
50379;SDS011;37474;59.468;18.040;2023-09-19T05:15:11;27.40;;;18.10;;
50379;SDS011;37474;59.468;18.040;2023-09-19T05:17:39;30.35;;;17.65;;
50379;SDS011;37474;59.468;18.040;2023-09-19T05:20:08;28.85;;;18.60;;
50379;SDS011;37474;59.468;18.040;2023-09-19T05:22:41;27.83;;;18.90;;
50379;SDS011;37474;59.468;18.040;2023-09-19T05:25:09;24.00;;;17.38;;
50379;SDS011;37474;59.468;18.040;2023-09-19T05:27:42;28.58;;;18.35;;
50379;SDS011;37474;59.468;18.040;2023-09-19T05:30:10;28.98;;;18.08;;
50379;SDS011;37474;59.468;18.040;2023-09-19T05:32:40;26.02;;;17.50;;
50379;SDS011;37474;59.468;18.040;2023-09-19T05:35:09;24.95;;;17.27;;
50379;SDS011;37474;59.468;18.040;2023-09-19T05:37:40;24.67;;;16.88;;
50379;SDS011;37474;59.468;18.040;2023-09-19T05:40:09;27.15;;;17.42;;
50379;SDS011;37474;59.468;18.040;2023-09-19T05:42:38;25.60;;;16.70;;
50379;SDS011;37474;59.468;18.040;2023-09-19T05:45:08;24.90;;;16.52;;
50379;SDS011;37474;59.468;18.040;2023-09-19T05:47:38;22.27;;;16.02;;
50379;SDS011;37474;59.468;18.040;2023-09-19T05:50:09;22.63;;;15.52;;
50379;SDS011;37474;59.468;18.040;2023-09-19T05:52:37;24.88;;;16.05;;
50379;SDS011;37474;59.468;18.040;2023-09-19T05:55:08;24.08;;;16.73;;
50379;SDS011;37474;59.468;18.040;2023-09-19T05:57:37;23.70;;;16.05;;
50379;SDS011;37474;59.468;18.040;2023-09-19T06:00:06;24.63;;;16.08;;
50379;SDS011;37474;59.468;18.040;2023-09-19T06:02:37;22.38;;;15.75;;
50379;SDS011;37474;59.468;18.040;2023-09-19T06:05:06;26.15;;;15.40;;
50379;SDS011;37474;59.468;18.040;2023-09-19T06:07:36;22.60;;;15.05;;
50379;SDS011;37474;59.468;18.040;2023-09-19T06:10:05;23.17;;;15.77;;
50379;SDS011;37474;59.468;18.040;2023-09-19T06:12:38;23.13;;;15.73;;
50379;SDS011;37474;59.468;18.040;2023-09-19T06:15:07;24.38;;;16.25;;
50379;SDS011;37474;59.468;18.040;2023-09-19T06:17:39;21.92;;;16.38;;
50379;SDS011;37474;59.468;18.040;2023-09-19T06:20:07;25.40;;;16.08;;
50379;SDS011;37474;59.468;18.040;2023-09-19T06:22:39;23.75;;;15.65;;
50379;SDS011;37474;59.468;18.040;2023-09-19T06:25:09;23.25;;;16.73;;
50379;SDS011;37474;59.468;18.040;2023-09-19T06:27:39;21.50;;;16.30;;
50379;SDS011;37474;59.468;18.040;2023-09-19T06:32:37;23.75;;;16.13;;
50379;SDS011;37474;59.468;18.040;2023-09-19T06:35:06;24.17;;;17.35;;
50379;SDS011;37474;59.468;18.040;2023-09-19T06:37:37;22.77;;;16.13;;
50379;SDS011;37474;59.468;18.040;2023-09-19T06:40:07;26.52;;;18.38;;
50379;SDS011;37474;59.468;18.040;2023-09-19T06:42:41;23.27;;;15.88;;
50379;SDS011;37474;59.468;18.040;2023-09-19T06:45:13;21.85;;;17.00;;
50379;SDS011;37474;59.468;18.040;2023-09-19T06:47:44;24.38;;;16.33;;
50379;SDS011;37474;59.468;18.040;2023-09-19T06:50:16;25.70;;;16.77;;
50379;SDS011;37474;59.468;18.040;2023-09-19T06:52:45;23.60;;;15.65;;
50379;SDS011;37474;59.468;18.040;2023-09-19T06:55:17;24.92;;;16.17;;
50379;SDS011;37474;59.468;18.040;2023-09-19T06:57:47;20.92;;;15.57;;
50379;SDS011;37474;59.468;18.040;2023-09-19T07:00:15;23.33;;;16.05;;
50379;SDS011;37474;59.468;18.040;2023-09-19T07:02:45;21.40;;;16.08;;
50379;SDS011;37474;59.468;18.040;2023-09-19T07:05:21;23.50;;;15.32;;
50379;SDS011;37474;59.468;18.040;2023-09-19T07:07:50;19.98;;;15.95;;
50379;SDS011;37474;59.468;18.040;2023-09-19T07:10:18;23.02;;;15.52;;
50379;SDS011;37474;59.468;18.040;2023-09-19T07:12:47;20.98;;;16.02;;
50379;SDS011;37474;59.468;18.040;2023-09-19T07:15:20;25.33;;;17.10;;
50379;SDS011;37474;59.468;18.040;2023-09-19T07:17:51;24.75;;;16.40;;
50379;SDS011;37474;59.468;18.040;2023-09-19T07:20:20;30.00;;;16.95;;
50379;SDS011;37474;59.468;18.040;2023-09-19T07:22:49;21.52;;;16.15;;
50379;SDS011;37474;59.468;18.040;2023-09-19T07:25:17;25.25;;;16.88;;
50379;SDS011;37474;59.468;18.040;2023-09-19T07:27:45;24.48;;;17.33;;
50379;SDS011;37474;59.468;18.040;2023-09-19T07:30:15;21.77;;;16.85;;
50379;SDS011;37474;59.468;18.040;2023-09-19T07:32:43;21.85;;;16.20;;
50379;SDS011;37474;59.468;18.040;2023-09-19T07:35:11;23.95;;;14.90;;
50379;SDS011;37474;59.468;18.040;2023-09-19T07:37:39;18.05;;;14.73;;
50379;SDS011;37474;59.468;18.040;2023-09-19T07:40:08;17.88;;;14.30;;
50379;SDS011;37474;59.468;18.040;2023-09-19T07:42:37;18.95;;;12.80;;
50379;SDS011;37474;59.468;18.040;2023-09-19T07:45:09;19.73;;;13.20;;
50379;SDS011;37474;59.468;18.040;2023-09-19T07:47:40;17.88;;;12.30;;
50379;SDS011;37474;59.468;18.040;2023-09-19T07:50:11;16.48;;;12.10;;
50379;SDS011;37474;59.468;18.040;2023-09-19T07:52:39;18.63;;;12.73;;
50379;SDS011;37474;59.468;18.040;2023-09-19T07:55:07;15.90;;;12.98;;
50379;SDS011;37474;59.468;18.040;2023-09-19T07:57:43;18.77;;;11.80;;
50379;SDS011;37474;59.468;18.040;2023-09-19T08:00:14;14.95;;;11.50;;
50379;SDS011;37474;59.468;18.040;2023-09-19T08:05:13;13.60;;;11.82;;
50379;SDS011;37474;59.468;18.040;2023-09-19T08:07:43;16.90;;;11.70;;
50379;SDS011;37474;59.468;18.040;2023-09-19T08:10:15;16.60;;;12.00;;
50379;SDS011;37474;59.468;18.040;2023-09-19T08:12:46;12.77;;;11.27;;
50379;SDS011;37474;59.468;18.040;2023-09-19T08:15:17;12.95;;;10.95;;
50379;SDS011;37474;59.468;18.040;2023-09-19T08:17:46;14.93;;;12.05;;
50379;SDS011;37474;59.468;18.040;2023-09-19T08:20:15;11.95;;;10.73;;
50379;SDS011;37474;59.468;18.040;2023-09-19T08:22:46;15.38;;;11.32;;
50379;SDS011;37474;59.468;18.040;2023-09-19T08:25:15;16.05;;;11.40;;
50379;SDS011;37474;59.468;18.040;2023-09-19T08:27:45;19.67;;;11.90;;
50379;SDS011;37474;59.468;18.040;2023-09-19T08:30:18;15.73;;;11.88;;
50379;SDS011;37474;59.468;18.040;2023-09-19T08:32:51;19.55;;;11.98;;
50379;SDS011;37474;59.468;18.040;2023-09-19T08:35:19;18.95;;;12.75;;
50379;SDS011;37474;59.468;18.040;2023-09-19T08:37:47;19.88;;;12.40;;
50379;SDS011;37474;59.468;18.040;2023-09-19T08:40:15;23.15;;;13.80;;
50379;SDS011;37474;59.468;18.040;2023-09-19T08:42:47;18.95;;;13.20;;
50379;SDS011;37474;59.468;18.040;2023-09-19T08:45:18;18.98;;;13.05;;
50379;SDS011;37474;59.468;18.040;2023-09-19T08:50:36;21.67;;;12.35;;
50379;SDS011;37474;59.468;18.040;2023-09-19T08:53:15;19.42;;;11.88;;
50379;SDS011;37474;59.468;18.040;2023-09-19T08:55:50;16.42;;;11.25;;
50379;SDS011;37474;59.468;18.040;2023-09-19T08:58:25;18.17;;;11.05;;
50379;SDS011;37474;59.468;18.040;2023-09-19T09:00:57;20.48;;;11.77;;
50379;SDS011;37474;59.468;18.040;2023-09-19T09:03:29;13.60;;;10.40;;
50379;SDS011;37474;59.468;18.040;2023-09-19T09:06:00;15.30;;;11.10;;
50379;SDS011;37474;59.468;18.040;2023-09-19T09:08:29;16.60;;;10.27;;
50379;SDS011;37474;59.468;18.040;2023-09-19T09:10:58;17.67;;;9.55;;
50379;SDS011;37474;59.468;18.040;2023-09-19T09:13:26;14.95;;;9.35;;
50379;SDS011;37474;59.468;18.040;2023-09-19T09:15:55;12.07;;;9.10;;
50379;SDS011;37474;59.468;18.040;2023-09-19T09:18:24;16.02;;;9.40;;
50379;SDS011;37474;59.468;18.040;2023-09-19T09:20:52;13.70;;;8.10;;
50379;SDS011;37474;59.468;18.040;2023-09-19T09:23:22;11.55;;;7.75;;
50379;SDS011;37474;59.468;18.040;2023-09-19T09:25:52;14.80;;;7.75;;
50379;SDS011;37474;59.468;18.040;2023-09-19T09:28:26;12.25;;;7.43;;
50379;SDS011;37474;59.468;18.040;2023-09-19T09:30:55;16.08;;;7.65;;
50379;SDS011;37474;59.468;18.040;2023-09-19T09:33:26;11.10;;;7.45;;
50379;SDS011;37474;59.468;18.040;2023-09-19T09:35:55;10.75;;;6.80;;
50379;SDS011;37474;59.468;18.040;2023-09-19T09:38:27;9.43;;;6.63;;
50379;SDS011;37474;59.468;18.040;2023-09-19T09:40:59;12.57;;;6.55;;
50379;SDS011;37474;59.468;18.040;2023-09-19T09:43:31;9.75;;;6.40;;
50379;SDS011;37474;59.468;18.040;2023-09-19T09:46:06;10.02;;;6.22;;
50379;SDS011;37474;59.468;18.040;2023-09-19T09:48:46;9.77;;;5.70;;
50379;SDS011;37474;59.468;18.040;2023-09-19T09:51:41;12.82;;;6.75;;
50379;SDS011;37474;59.468;18.040;2023-09-19T09:54:14;8.98;;;5.53;;
50379;SDS011;37474;59.468;18.040;2023-09-19T09:56:53;9.13;;;5.93;;
50379;SDS011;37474;59.468;18.040;2023-09-19T09:59:44;10.60;;;5.97;;
50379;SDS011;37474;59.468;18.040;2023-09-19T10:02:25;8.35;;;5.32;;
50379;SDS011;37474;59.468;18.040;2023-09-19T10:05:10;8.88;;;5.47;;
50379;SDS011;37474;59.468;18.040;2023-09-19T10:07:47;11.00;;;5.28;;
50379;SDS011;37474;59.468;18.040;2023-09-19T10:13:20;9.98;;;5.78;;
50379;SDS011;37474;59.468;18.040;2023-09-19T10:15:51;10.98;;;5.57;;
50379;SDS011;37474;59.468;18.040;2023-09-19T10:18:22;11.70;;;5.80;;
50379;SDS011;37474;59.468;18.040;2023-09-19T10:20:53;8.52;;;5.72;;
50379;SDS011;37474;59.468;18.040;2023-09-19T10:23:21;7.55;;;5.60;;
50379;SDS011;37474;59.468;18.040;2023-09-19T10:25:52;11.20;;;5.38;;
50379;SDS011;37474;59.468;18.040;2023-09-19T10:28:21;11.38;;;5.55;;
50379;SDS011;37474;59.468;18.040;2023-09-19T10:30:50;9.73;;;5.00;;
50379;SDS011;37474;59.468;18.040;2023-09-19T10:35:49;8.88;;;5.05;;
50379;SDS011;37474;59.468;18.040;2023-09-19T10:38:22;5.90;;;4.60;;
50379;SDS011;37474;59.468;18.040;2023-09-19T10:40:52;8.98;;;4.95;;
50379;SDS011;37474;59.468;18.040;2023-09-19T10:43:21;7.95;;;4.80;;
50379;SDS011;37474;59.468;18.040;2023-09-19T10:45:53;7.75;;;5.05;;
50379;SDS011;37474;59.468;18.040;2023-09-19T10:48:28;7.72;;;4.32;;
50379;SDS011;37474;59.468;18.040;2023-09-19T10:51:00;9.73;;;5.35;;
50379;SDS011;37474;59.468;18.040;2023-09-19T10:53:41;8.50;;;4.32;;
50379;SDS011;37474;59.468;18.040;2023-09-19T10:56:18;6.80;;;4.60;;
50379;SDS011;37474;59.468;18.040;2023-09-19T10:58:50;11.00;;;4.55;;
50379;SDS011;37474;59.468;18.040;2023-09-19T11:01:18;9.02;;;4.57;;
50379;SDS011;37474;59.468;18.040;2023-09-19T11:03:48;6.82;;;4.03;;
50379;SDS011;37474;59.468;18.040;2023-09-19T11:06:37;8.98;;;4.05;;
50379;SDS011;37474;59.468;18.040;2023-09-19T11:09:09;7.72;;;4.78;;
50379;SDS011;37474;59.468;18.040;2023-09-19T11:11:48;7.63;;;4.35;;
50379;SDS011;37474;59.468;18.040;2023-09-19T11:14:30;6.50;;;4.25;;
50379;SDS011;37474;59.468;18.040;2023-09-19T11:20:22;7.20;;;4.47;;
50379;SDS011;37474;59.468;18.040;2023-09-19T11:23:18;7.25;;;4.20;;
50379;SDS011;37474;59.468;18.040;2023-09-19T11:25:50;7.20;;;4.40;;
50379;SDS011;37474;59.468;18.040;2023-09-19T11:28:28;9.02;;;4.50;;
50379;SDS011;37474;59.468;18.040;2023-09-19T11:31:40;5.53;;;4.22;;
50379;SDS011;37474;59.468;18.040;2023-09-19T11:40:37;8.57;;;3.95;;
50379;SDS011;37474;59.468;18.040;2023-09-19T11:46:08;6.70;;;3.70;;
50379;SDS011;37474;59.468;18.040;2023-09-19T11:48:40;8.75;;;3.20;;
50379;SDS011;37474;59.468;18.040;2023-09-19T11:51:18;4.75;;;3.15;;
50379;SDS011;37474;59.468;18.040;2023-09-19T11:53:49;5.72;;;3.33;;
50379;SDS011;37474;59.468;18.040;2023-09-19T11:56:18;6.97;;;3.00;;
50379;SDS011;37474;59.468;18.040;2023-09-19T11:58:49;6.32;;;2.92;;
50379;SDS011;37474;59.468;18.040;2023-09-19T12:01:24;2.92;;;2.20;;
50379;SDS011;37474;59.468;18.040;2023-09-19T12:03:56;2.80;;;1.60;;
50379;SDS011;37474;59.468;18.040;2023-09-19T12:06:28;3.42;;;1.40;;
50379;SDS011;37474;59.468;18.040;2023-09-19T12:08:58;2.60;;;1.20;;
50379;SDS011;37474;59.468;18.040;2023-09-19T12:11:28;3.92;;;1.70;;
50379;SDS011;37474;59.468;18.040;2023-09-19T12:14:00;4.15;;;1.40;;
50379;SDS011;37474;59.468;18.040;2023-09-19T12:16:30;4.28;;;1.17;;
50379;SDS011;37474;59.468;18.040;2023-09-19T12:22:00;5.07;;;1.00;;
50379;SDS011;37474;59.468;18.040;2023-09-19T12:24:31;3.45;;;1.10;;
50379;SDS011;37474;59.468;18.040;2023-09-19T12:27:04;3.05;;;1.30;;
50379;SDS011;37474;59.468;18.040;2023-09-19T12:29:41;4.72;;;1.15;;
50379;SDS011;37474;59.468;18.040;2023-09-19T12:32:10;2.22;;;1.17;;
50379;SDS011;37474;59.468;18.040;2023-09-19T12:34:39;4.40;;;1.20;;
50379;SDS011;37474;59.468;18.040;2023-09-19T12:37:11;2.88;;;1.25;;
50379;SDS011;37474;59.468;18.040;2023-09-19T12:39:42;4.05;;;1.30;;
50379;SDS011;37474;59.468;18.040;2023-09-19T12:42:15;7.57;;;1.33;;
50379;SDS011;37474;59.468;18.040;2023-09-19T12:44:45;4.65;;;1.33;;
50379;SDS011;37474;59.468;18.040;2023-09-19T12:47:15;4.88;;;1.30;;
50379;SDS011;37474;59.468;18.040;2023-09-19T12:50:05;1.98;;;1.08;;
50379;SDS011;37474;59.468;18.040;2023-09-19T12:52:42;6.13;;;1.50;;
50379;SDS011;37474;59.468;18.040;2023-09-19T12:55:21;5.15;;;1.55;;
50379;SDS011;37474;59.468;18.040;2023-09-19T12:58:02;3.45;;;1.13;;
50379;SDS011;37474;59.468;18.040;2023-09-19T13:00:37;4.20;;;1.27;;
50379;SDS011;37474;59.468;18.040;2023-09-19T13:03:15;2.47;;;1.23;;
50379;SDS011;37474;59.468;18.040;2023-09-19T13:05:49;4.00;;;1.30;;
50379;SDS011;37474;59.468;18.040;2023-09-19T13:08:27;3.13;;;1.30;;
50379;SDS011;37474;59.468;18.040;2023-09-19T13:13:48;3.10;;;1.33;;
50379;SDS011;37474;59.468;18.040;2023-09-19T13:16:20;2.92;;;1.35;;
50379;SDS011;37474;59.468;18.040;2023-09-19T13:18:51;5.25;;;1.40;;
50379;SDS011;37474;59.468;18.040;2023-09-19T13:21:30;3.60;;;1.45;;
50379;SDS011;37474;59.468;18.040;2023-09-19T13:24:20;5.00;;;1.45;;
50379;SDS011;37474;59.468;18.040;2023-09-19T13:26:52;5.85;;;1.83;;
50379;SDS011;37474;59.468;18.040;2023-09-19T13:29:20;3.85;;;1.40;;
50379;SDS011;37474;59.468;18.040;2023-09-19T13:31:49;5.60;;;1.55;;
50379;SDS011;37474;59.468;18.040;2023-09-19T13:34:19;6.05;;;1.50;;
50379;SDS011;37474;59.468;18.040;2023-09-19T13:36:48;6.78;;;1.40;;
50379;SDS011;37474;59.468;18.040;2023-09-19T13:39:16;4.40;;;1.33;;
50379;SDS011;37474;59.468;18.040;2023-09-19T13:41:48;3.72;;;1.48;;
50379;SDS011;37474;59.468;18.040;2023-09-19T13:44:16;6.90;;;1.67;;
50379;SDS011;37474;59.468;18.040;2023-09-19T13:46:44;5.20;;;1.52;;
50379;SDS011;37474;59.468;18.040;2023-09-19T13:49:13;3.78;;;1.45;;
50379;SDS011;37474;59.468;18.040;2023-09-19T13:51:41;5.30;;;1.42;;
50379;SDS011;37474;59.468;18.040;2023-09-19T13:54:11;5.68;;;1.67;;
50379;SDS011;37474;59.468;18.040;2023-09-19T13:56:40;3.78;;;1.40;;
50379;SDS011;37474;59.468;18.040;2023-09-19T13:59:10;3.72;;;1.50;;
50379;SDS011;37474;59.468;18.040;2023-09-19T14:01:38;4.47;;;1.53;;
50379;SDS011;37474;59.468;18.040;2023-09-19T14:04:06;8.52;;;1.42;;
50379;SDS011;37474;59.468;18.040;2023-09-19T14:06:34;5.25;;;1.33;;
50379;SDS011;37474;59.468;18.040;2023-09-19T14:09:03;4.28;;;1.30;;
50379;SDS011;37474;59.468;18.040;2023-09-19T14:11:32;5.68;;;1.50;;
50379;SDS011;37474;59.468;18.040;2023-09-19T14:14:00;5.82;;;1.80;;
50379;SDS011;37474;59.468;18.040;2023-09-19T14:16:30;3.83;;;1.50;;
50379;SDS011;37474;59.468;18.040;2023-09-19T14:19:00;4.30;;;1.60;;
50379;SDS011;37474;59.468;18.040;2023-09-19T14:21:31;2.97;;;1.50;;
50379;SDS011;37474;59.468;18.040;2023-09-19T14:23:59;6.03;;;1.40;;
50379;SDS011;37474;59.468;18.040;2023-09-19T14:26:29;4.70;;;1.45;;
50379;SDS011;37474;59.468;18.040;2023-09-19T14:28:57;5.82;;;1.90;;
50379;SDS011;37474;59.468;18.040;2023-09-19T14:31:27;4.97;;;1.27;;
50379;SDS011;37474;59.468;18.040;2023-09-19T14:33:57;4.47;;;1.20;;
50379;SDS011;37474;59.468;18.040;2023-09-19T14:36:25;4.93;;;1.52;;
50379;SDS011;37474;59.468;18.040;2023-09-19T14:38:55;4.63;;;1.33;;
50379;SDS011;37474;59.468;18.040;2023-09-19T14:41:24;6.10;;;1.48;;
50379;SDS011;37474;59.468;18.040;2023-09-19T14:43:52;4.25;;;1.30;;
50379;SDS011;37474;59.468;18.040;2023-09-19T14:46:21;4.40;;;1.23;;
50379;SDS011;37474;59.468;18.040;2023-09-19T14:48:51;4.30;;;1.45;;
50379;SDS011;37474;59.468;18.040;2023-09-19T14:51:20;3.58;;;1.30;;
50379;SDS011;37474;59.468;18.040;2023-09-19T14:53:49;3.92;;;1.38;;
50379;SDS011;37474;59.468;18.040;2023-09-19T14:56:17;6.03;;;1.35;;
50379;SDS011;37474;59.468;18.040;2023-09-19T14:58:46;3.50;;;1.27;;
50379;SDS011;37474;59.468;18.040;2023-09-19T15:01:14;6.00;;;1.40;;
50379;SDS011;37474;59.468;18.040;2023-09-19T15:03:43;3.80;;;1.30;;
50379;SDS011;37474;59.468;18.040;2023-09-19T15:06:13;3.15;;;1.20;;
50379;SDS011;37474;59.468;18.040;2023-09-19T15:08:45;3.08;;;1.15;;
50379;SDS011;37474;59.468;18.040;2023-09-19T15:11:15;6.35;;;1.42;;
50379;SDS011;37474;59.468;18.040;2023-09-19T15:13:44;5.07;;;1.50;;
50379;SDS011;37474;59.468;18.040;2023-09-19T15:16:13;7.07;;;1.83;;
50379;SDS011;37474;59.468;18.040;2023-09-19T15:18:41;5.10;;;1.33;;
50379;SDS011;37474;59.468;18.040;2023-09-19T15:21:11;5.65;;;1.63;;
50379;SDS011;37474;59.468;18.040;2023-09-19T15:23:41;5.73;;;1.20;;
50379;SDS011;37474;59.468;18.040;2023-09-19T15:26:11;3.08;;;1.20;;